Time;durP1;ratioP1;P1;durP2;ratioP2;P2;SDS_P1;SDS_P2;PMS_P1;PMS_P2;Temp;Humidity;BMP_temperature;BMP_pressure;BME280_temperature;BME280_humidity;BME280_pressure;Samples;Min_cycle;Max_cycle;Signal;HPM_P1;HPM_P2
2022/04/23 00:02:17;;;;;;;2.50;2.50;;;19.20;60.20;;;;;;5025992;28;44103;-73
2022/04/23 00:04:45;;;;;;;2.40;2.40;;;19.20;59.90;;;;;;5025965;28;44084;-73
2022/04/23 00:07:13;;;;;;;2.30;2.30;;;19.10;59.60;;;;;;5026373;28;43955;-73
2022/04/23 00:09:41;;;;;;;2.40;2.40;;;19.10;59.70;;;;;;5011275;28;45671;-73
2022/04/23 00:12:09;;;;;;;2.60;2.60;;;19.00;59.80;;;;;;5011278;28;46098;-72
2022/04/23 00:14:37;;;;;;;2.50;2.47;;;18.90;59.90;;;;;;5028849;28;43873;-73
2022/04/23 00:17:08;;;;;;;2.83;2.83;;;18.90;60.10;;;;;;5016232;28;44020;-74
2022/04/23 00:19:36;;;;;;;2.63;2.63;;;18.90;60.20;;;;;;5028827;28;44730;-73
2022/04/23 00:22:06;;;;;;;2.60;2.60;;;18.90;60.40;;;;;;5028955;28;43977;-73
2022/04/23 00:24:36;;;;;;;2.70;2.60;;;18.80;60.40;;;;;;5022967;28;43923;-73
2022/04/23 00:27:06;;;;;;;2.60;2.60;;;18.80;60.40;;;;;;5028313;28;44104;-73
2022/04/23 00:29:35;;;;;;;2.70;2.70;;;18.80;61.10;;;;;;5027810;28;46360;-73
2022/04/23 00:32:03;;;;;;;2.90;2.90;;;18.90;61.10;;;;;;5029116;28;43874;-72
2022/04/23 00:34:32;;;;;;;2.57;2.57;;;19.00;60.90;;;;;;5028945;28;44054;-72
2022/04/23 00:37:01;;;;;;;2.30;2.30;;;19.20;60.40;;;;;;5029815;28;43948;-72
2022/04/23 00:39:29;;;;;;;2.33;2.33;;;19.40;59.90;;;;;;5027060;28;44223;-73
2022/04/23 00:41:59;;;;;;;2.90;2.80;;;19.50;59.40;;;;;;5028828;28;44149;-73
2022/04/23 00:44:27;;;;;;;2.63;2.63;;;19.50;59.40;;;;;;5027100;28;43973;-74
2022/04/23 00:46:55;;;;;;;2.40;2.40;;;19.40;59.20;;;;;;5027559;28;43999;-72
2022/04/23 00:49:23;;;;;;;2.80;2.80;;;19.30;59.10;;;;;;5028712;28;44068;-72
2022/04/23 00:51:52;;;;;;;2.60;2.60;;;19.20;59.30;;;;;;5028671;28;43950;-73
2022/04/23 00:54:21;;;;;;;2.67;2.67;;;19.10;59.50;;;;;;5028746;28;43916;-72
2022/04/23 00:56:49;;;;;;;2.70;2.70;;;19.10;59.70;;;;;;5027631;28;44135;-73
2022/04/23 00:59:17;;;;;;;2.60;2.60;;;19.00;59.90;;;;;;5026989;28;45780;-72
2022/04/23 01:01:45;;;;;;;2.60;2.60;;;18.90;59.90;;;;;;5028500;28;44102;-71
2022/04/23 01:04:14;;;;;;;2.70;2.70;;;18.90;60.80;;;;;;5028671;28;43389;-70
2022/04/23 01:06:44;;;;;;;2.87;2.77;;;19.00;61.00;;;;;;5028824;28;43793;-71
2022/04/23 01:09:13;;;;;;;2.83;2.83;;;19.10;60.80;;;;;;5028313;28;43983;-71
2022/04/23 01:11:41;;;;;;;2.47;2.47;;;19.30;60.30;;;;;;5028401;28;43940;-71
2022/04/23 01:14:09;;;;;;;2.50;2.50;;;19.40;59.80;;;;;;5028309;28;44067;-71
2022/04/23 01:16:37;;;;;;;3.00;2.90;;;19.40;59.60;;;;;;5025325;28;44223;-71
2022/04/23 01:19:05;;;;;;;2.50;2.50;;;19.30;59.50;;;;;;4991399;28;45386;-72
2022/04/23 01:21:34;;;;;;;2.73;2.73;;;19.20;59.40;;;;;;5009032;28;43874;-70
2022/04/23 01:24:02;;;;;;;2.77;2.77;;;19.10;59.60;;;;;;4990532;28;43489;-70
2022/04/23 01:26:31;;;;;;;2.77;2.77;;;19.10;59.80;;;;;;5009489;28;43915;-71
2022/04/23 01:28:59;;;;;;;2.93;2.83;;;19.00;59.90;;;;;;5008766;28;44708;-70
2022/04/23 01:31:28;;;;;;;2.70;2.70;;;18.90;60.00;;;;;;4990701;28;45164;-71
2022/04/23 01:33:56;;;;;;;3.00;3.00;;;18.90;60.20;;;;;;5024257;28;43988;-70
2022/04/23 01:36:24;;;;;;;2.70;2.70;;;18.90;60.40;;;;;;5028042;28;44033;-70
2022/04/23 01:38:53;;;;;;;2.80;2.80;;;18.90;61.10;;;;;;5027393;28;43945;-70
2022/04/23 01:41:21;;;;;;;2.83;2.80;;;18.90;61.10;;;;;;5009497;28;44907;-71
2022/04/23 01:43:49;;;;;;;2.80;2.80;;;19.10;61.00;;;;;;5009486;28;43383;-72
2022/04/23 01:46:17;;;;;;;2.90;2.90;;;19.30;60.50;;;;;;5027908;28;44019;-71
2022/04/23 01:48:45;;;;;;;3.10;2.90;;;19.40;60.00;;;;;;5027313;28;43982;-71
2022/04/23 01:51:13;;;;;;;2.73;2.73;;;19.40;59.80;;;;;;5027328;28;43990;-70
2022/04/23 01:53:41;;;;;;;2.80;2.80;;;19.30;59.50;;;;;;5009385;28;43990;-71
2022/04/23 01:56:11;;;;;;;2.77;2.77;;;19.20;59.50;;;;;;5027584;28;44065;-71
2022/04/23 01:58:39;;;;;;;2.80;2.80;;;19.20;59.70;;;;;;5027069;28;43949;-71
2022/04/23 02:01:07;;;;;;;2.80;2.80;;;19.10;59.80;;;;;;5027191;28;43886;-70
2022/04/23 02:03:35;;;;;;;3.43;3.33;;;19.00;60.00;;;;;;5027155;28;44328;-71
2022/04/23 02:06:03;;;;;;;3.10;3.10;;;18.90;60.10;;;;;;5027882;28;44250;-71
2022/04/23 02:08:31;;;;;;;3.00;3.00;;;18.90;60.20;;;;;;5027219;28;43945;-71
2022/04/23 02:10:59;;;;;;;3.00;3.00;;;18.90;60.40;;;;;;5026886;28;43450;-71
2022/04/23 02:13:30;;;;;;;2.90;2.90;;;18.90;61.10;;;;;;5027006;28;43959;-71
2022/04/23 02:15:58;;;;;;;3.30;3.20;;;19.00;61.10;;;;;;5027033;28;43953;-71
2022/04/23 02:18:26;;;;;;;3.63;3.50;;;19.10;60.80;;;;;;5026785;28;44966;-70
2022/04/23 02:20:54;;;;;;;3.43;3.33;;;19.20;60.40;;;;;;5027208;28;43353;-71
2022/04/23 02:23:23;;;;;;;3.00;3.00;;;19.20;60.00;;;;;;5027056;28;43421;-71
2022/04/23 02:25:51;;;;;;;3.57;3.47;;;19.10;59.80;;;;;;5027501;28;43935;-70
2022/04/23 02:28:19;;;;;;;2.93;2.93;;;19.10;60.00;;;;;;5027122;28;43874;-71
2022/04/23 02:30:48;;;;;;;2.97;2.97;;;19.00;60.10;;;;;;5026806;28;44008;-71
2022/04/23 02:33:16;;;;;;;3.30;3.20;;;19.00;60.20;;;;;;5027290;28;43942;-71
2022/04/23 02:35:46;;;;;;;3.20;3.20;;;18.90;60.30;;;;;;5027484;28;43963;-71
2022/04/23 02:38:17;;;;;;;3.17;3.17;;;18.90;60.50;;;;;;5026591;28;44037;-70
2022/04/23 02:40:45;;;;;;;3.10;3.10;;;18.90;60.60;;;;;;5027030;28;43660;-71
2022/04/23 02:43:12;;;;;;;3.30;3.20;;;18.80;60.60;;;;;;5027195;28;44053;-72
2022/04/23 02:45:41;;;;;;;3.10;3.10;;;18.80;60.70;;;;;;5027283;28;43386;-71
2022/04/23 02:48:11;;;;;;;2.87;2.87;;;18.80;61.30;;;;;;5008737;28;45432;-71
2022/04/23 02:50:39;;;;;;;3.57;3.47;;;18.90;61.40;;;;;;5027102;28;43909;-71
2022/04/23 02:53:08;;;;;;;3.30;3.30;;;19.10;61.10;;;;;;5026713;28;43599;-71
2022/04/23 02:55:36;;;;;;;3.30;3.20;;;19.30;60.60;;;;;;5027359;28;43925;-70
2022/04/23 02:58:07;;;;;;;3.13;3.07;;;19.40;60.00;;;;;;5027044;28;43597;-71
2022/04/23 03:00:35;;;;;;;3.37;3.33;;;19.50;59.80;;;;;;5020241;28;43358;-71
2022/04/23 03:03:05;;;;;;;3.10;3.10;;;19.40;59.70;;;;;;5020738;28;44057;-72
2022/04/23 03:05:34;;;;;;;3.20;3.20;;;19.30;59.60;;;;;;5009138;28;43779;-71
2022/04/23 03:08:02;;;;;;;2.80;2.80;;;19.20;59.70;;;;;;5020595;28;43962;-70
2022/04/23 03:10:30;;;;;;;3.33;3.30;;;19.10;59.90;;;;;;5026512;28;43437;-71
2022/04/23 03:12:58;;;;;;;3.33;3.23;;;19.10;60.20;;;;;;5026672;28;43432;-71
2022/04/23 03:15:27;;;;;;;3.33;3.23;;;19.00;60.40;;;;;;5026738;28;43938;-71
2022/04/23 03:18:03;;;;;;;3.50;3.40;;;18.90;60.50;;;;;;5025779;28;43922;-71
2022/04/23 03:20:31;;;;;;;3.70;3.60;;;18.90;60.70;;;;;;5026512;28;43421;-71
2022/04/23 03:23:01;;;;;;;3.70;3.60;;;18.90;61.30;;;;;;5026585;28;43819;-72
2022/04/23 03:25:29;;;;;;;3.40;3.30;;;19.00;61.40;;;;;;5008796;28;43879;-71
2022/04/23 03:27:57;;;;;;;3.23;3.13;;;19.20;61.00;;;;;;5026427;28;43905;-71
2022/04/23 03:30:25;;;;;;;3.17;3.17;;;19.30;60.40;;;;;;5008369;28;45068;-71
2022/04/23 03:32:53;;;;;;;3.53;3.43;;;19.40;60.00;;;;;;5008272;28;43433;-71
2022/04/23 03:35:21;;;;;;;4.00;3.87;;;19.40;59.90;;;;;;5008542;28;44259;-72
2022/04/23 03:37:49;;;;;;;3.33;3.27;;;19.30;59.80;;;;;;5008117;28;45893;-71
2022/04/23 03:40:25;;;;;;;3.13;3.13;;;19.20;59.80;;;;;;5026118;28;43939;-71
2022/04/23 03:42:53;;;;;;;3.50;3.40;;;19.10;60.00;;;;;;5027514;28;44078;-71
2022/04/23 03:45:21;;;;;;;3.67;3.57;;;19.00;60.10;;;;;;5030065;28;44001;-72
2022/04/23 03:47:49;;;;;;;3.17;3.17;;;19.00;60.40;;;;;;5029470;28;43990;-71
2022/04/23 03:50:17;;;;;;;3.80;3.70;;;18.90;60.40;;;;;;5029882;28;43886;-70
2022/04/23 03:52:45;;;;;;;3.20;3.20;;;18.90;60.70;;;;;;5029833;28;43970;-70
2022/04/23 03:55:13;;;;;;;3.83;3.73;;;18.80;60.70;;;;;;5029927;28;43398;-70
2022/04/23 03:57:46;;;;;;;3.90;3.70;;;18.90;61.50;;;;;;5029545;28;44013;-70
2022/04/23 04:00:15;;;;;;;3.53;3.43;;;19.00;61.50;;;;;;5027953;28;44744;-71
2022/04/23 04:02:43;;;;;;;3.60;3.53;;;19.10;61.00;;;;;;5011459;28;44035;-71
2022/04/23 04:05:12;;;;;;;3.70;3.60;;;19.20;60.60;;;;;;5029691;28;44052;-71
2022/04/23 04:07:43;;;;;;;3.40;3.30;;;19.20;60.10;;;;;;5029332;28;43818;-71
2022/04/23 04:10:12;;;;;;;3.67;3.57;;;19.10;60.00;;;;;;5029201;28;43862;-71
2022/04/23 04:12:41;;;;;;;3.70;3.60;;;19.10;60.20;;;;;;5029556;28;43940;-70
2022/04/23 04:15:11;;;;;;;3.97;3.87;;;19.00;60.30;;;;;;5029450;28;43953;-70
2022/04/23 04:17:40;;;;;;;3.87;3.67;;;18.90;60.40;;;;;;5020138;28;45915;-71
2022/04/23 04:20:10;;;;;;;3.20;3.20;;;18.90;60.70;;;;;;5029191;28;43995;-71
2022/04/23 04:22:39;;;;;;;3.80;3.70;;;18.90;60.70;;;;;;5029510;28;43921;-72
2022/04/23 04:25:07;;;;;;;3.70;3.60;;;18.80;60.80;;;;;;5029517;28;43926;-71
2022/04/23 04:27:35;;;;;;;3.70;3.60;;;18.80;60.90;;;;;;5028230;28;44027;-72
2022/04/23 04:30:03;;;;;;;3.63;3.53;;;18.80;61.00;;;;;;5029363;28;43444;-71
2022/04/23 04:32:33;;;;;;;3.40;3.33;;;18.80;61.60;;;;;;5029442;28;43806;-71
2022/04/23 04:35:00;;;;;;;3.37;3.37;;;18.90;61.50;;;;;;5029498;28;44006;-71
2022/04/23 04:37:28;;;;;;;3.73;3.63;;;19.10;61.90;;;;;;5028756;28;45115;-71
2022/04/23 04:39:56;;;;;;;4.00;3.90;;;19.30;60.60;;;;;;5028928;28;43962;-71
2022/04/23 04:42:24;;;;;;;3.90;3.80;;;19.50;60.10;;;;;;5029127;28;43915;-71
2022/04/23 04:44:52;;;;;;;3.87;3.77;;;19.50;59.60;;;;;;5029420;28;43389;-71
2022/04/23 04:47:20;;;;;;;4.00;3.90;;;19.50;59.60;;;;;;5028823;28;43878;-71
2022/04/23 04:49:49;;;;;;;3.90;3.80;;;19.40;59.40;;;;;;5027271;28;44725;-71
2022/04/23 04:52:17;;;;;;;3.80;3.70;;;19.30;59.40;;;;;;5022342;28;44046;-71
2022/04/23 04:54:45;;;;;;;3.40;3.30;;;19.20;59.60;;;;;;5022723;28;43472;-71
2022/04/23 04:57:13;;;;;;;4.00;3.90;;;19.10;59.80;;;;;;5022300;28;44118;-71
2022/04/23 04:59:41;;;;;;;4.03;3.93;;;19.10;60.00;;;;;;5022371;28;44063;-71
2022/04/23 05:02:09;;;;;;;3.77;3.67;;;19.00;60.20;;;;;;5022304;28;43882;-70
2022/04/23 05:04:37;;;;;;;4.00;3.90;;;19.00;60.30;;;;;;5021160;28;43944;-70
2022/04/23 05:07:07;;;;;;;4.33;4.20;;;18.90;60.30;;;;;;5022351;28;43891;-69
2022/04/23 05:09:35;;;;;;;3.90;3.80;;;18.90;60.40;;;;;;5021330;28;44947;-71
2022/04/23 05:12:04;;;;;;;3.90;3.80;;;18.80;60.40;;;;;;5027274;28;43993;-71
2022/04/23 05:14:32;;;;;;;3.90;3.80;;;18.80;61.10;;;;;;5028805;28;44004;-71
2022/04/23 05:17:04;;;;;;;4.17;4.07;;;18.80;60.80;;;;;;5028334;28;43917;-71
2022/04/23 05:19:32;;;;;;;4.13;4.03;;;18.80;61.50;;;;;;5028566;28;44043;-71
2022/04/23 05:22:00;;;;;;;3.83;3.70;;;18.80;60.80;;;;;;5028285;28;43942;-72
2022/04/23 05:24:32;;;;;;;4.00;3.90;;;18.80;61.40;;;;;;5028650;28;43888;-71
2022/04/23 05:27:00;;;;;;;3.77;3.67;;;18.90;61.40;;;;;;5028162;28;43787;-72
2022/04/23 05:29:28;;;;;;;3.67;3.57;;;19.10;61.40;;;;;;5028257;28;43979;-71
2022/04/23 05:31:56;;;;;;;4.10;4.00;;;19.30;61.00;;;;;;5027999;28;43425;-72
2022/04/23 05:34:28;;;;;;;3.77;3.67;;;19.50;60.50;;;;;;5028661;28;44032;-70
2022/04/23 05:36:56;;;;;;;4.07;3.97;;;19.70;60.00;;;;;;5028131;28;43994;-71
2022/04/23 05:39:24;;;;;;;3.73;3.63;;;19.80;59.50;;;;;;5028088;28;44058;-72
2022/04/23 05:41:53;;;;;;;3.80;3.70;;;20.00;59.20;;;;;;5028168;28;44018;-72
2022/04/23 05:44:21;;;;;;;3.60;3.50;;;20.20;58.80;;;;;;5028546;28;43910;-72
2022/04/23 05:46:49;;;;;;;3.90;3.80;;;20.30;58.50;;;;;;5027523;28;44057;-70
2022/04/23 05:49:17;;;;;;;3.80;3.70;;;20.40;58.10;;;;;;5028122;28;43954;-71
2022/04/23 05:52:06;;;;;;;3.87;3.77;;;20.50;57.90;;;;;;5028327;28;43993;-71
2022/04/23 05:54:34;;;;;;;3.70;3.60;;;20.50;57.70;;;;;;5028384;28;43448;-70
2022/04/23 05:57:04;;;;;;;3.80;3.70;;;20.40;58.00;;;;;;5027929;28;43827;-71
2022/04/23 05:59:32;;;;;;;3.87;3.77;;;20.20;58.20;;;;;;5027621;28;43898;-70
2022/04/23 06:02:01;;;;;;;3.60;3.50;;;20.00;58.50;;;;;;5027685;28;43905;-71
2022/04/23 06:04:29;;;;;;;3.70;3.60;;;19.80;58.60;;;;;;5028255;28;43353;-71
2022/04/23 06:06:57;;;;;;;3.80;3.70;;;19.70;58.90;;;;;;5027043;28;44019;-71
2022/04/23 06:09:25;;;;;;;4.00;3.90;;;19.50;59.10;;;;;;5027952;28;43985;-70
2022/04/23 06:11:53;;;;;;;3.90;3.80;;;19.40;59.50;;;;;;5027863;28;43364;-70
2022/04/23 06:14:22;;;;;;;3.77;3.67;;;19.30;60.90;;;;;;5027978;28;43940;-71
2022/04/23 06:16:50;;;;;;;3.80;3.70;;;19.30;60.90;;;;;;5026906;28;44775;-72
2022/04/23 06:19:18;;;;;;;3.90;3.80;;;19.40;60.60;;;;;;5027553;28;43906;-71
2022/04/23 06:21:46;;;;;;;4.50;4.40;;;19.40;60.30;;;;;;5027524;28;44332;-71
2022/04/23 06:24:14;;;;;;;4.00;3.90;;;19.40;60.40;;;;;;5027640;28;43928;-70
2022/04/23 06:26:42;;;;;;;3.93;3.83;;;19.30;60.00;;;;;;5027301;28;43977;-70
2022/04/23 06:29:09;;;;;;;4.13;3.93;;;19.30;60.00;;;;;;5027267;28;43996;-70
2022/04/23 06:31:39;;;;;;;4.07;3.87;;;19.20;60.10;;;;;;5027304;28;43861;-71
2022/04/23 06:34:07;;;;;;;3.77;3.67;;;19.10;60.30;;;;;;5027909;28;44025;-71
2022/04/23 06:36:36;;;;;;;3.23;3.23;;;19.10;60.50;;;;;;5027298;28;43738;-72
2022/04/23 06:39:04;;;;;;;4.17;4.07;;;19.00;60.60;;;;;;5027220;28;44025;-70
2022/04/23 06:41:32;;;;;;;3.70;3.60;;;19.00;60.90;;;;;;5021093;28;43965;-71
2022/04/23 06:44:00;;;;;;;4.00;3.90;;;18.90;60.90;;;;;;5021188;28;44017;-71
2022/04/23 06:46:28;;;;;;;3.70;3.60;;;18.90;62.10;;;;;;5020518;28;43907;-70
2022/04/23 06:49:00;;;;;;;3.80;3.70;;;19.00;62.10;;;;;;5020866;28;43946;-71
2022/04/23 06:51:27;;;;;;;3.90;3.80;;;19.20;61.80;;;;;;5021278;28;44001;-70
2022/04/23 06:53:55;;;;;;;3.63;3.53;;;19.30;61.30;;;;;;5027149;28;43571;-70
2022/04/23 06:56:23;;;;;;;4.00;3.90;;;19.40;60.80;;;;;;5026798;28;43898;-70
2022/04/23 06:58:51;;;;;;;3.57;3.47;;;19.50;60.60;;;;;;5027038;28;43537;-71
2022/04/23 07:01:19;;;;;;;3.73;3.63;;;19.40;60.50;;;;;;5026943;28;43925;-71
2022/04/23 07:03:47;;;;;;;3.87;3.77;;;19.30;60.20;;;;;;5027120;28;44156;-72
2022/04/23 07:06:17;;;;;;;3.30;3.30;;;19.20;60.10;;;;;;5026632;28;43624;-71
2022/04/23 07:08:45;;;;;;;3.50;3.40;;;19.20;60.40;;;;;;5026820;28;44129;-71
2022/04/23 07:11:13;;;;;;;3.67;3.57;;;19.10;60.50;;;;;;5008852;28;43865;-70
2022/04/23 07:13:40;;;;;;;3.60;3.50;;;19.00;60.70;;;;;;5027150;28;44006;-70
2022/04/23 07:16:09;;;;;;;3.70;3.60;;;19.00;60.90;;;;;;5025491;28;43886;-71
2022/04/23 07:18:39;;;;;;;3.83;3.73;;;18.90;61.50;;;;;;5025374;28;43875;-71
2022/04/23 07:21:07;;;;;;;3.43;3.37;;;18.90;62.10;;;;;;5008807;28;44141;-71
2022/04/23 07:26:22;;;;;;;3.13;3.13;;;19.20;61.60;;;;;;5026475;28;44002;-71
2022/04/23 07:28:50;;;;;;;3.70;3.60;;;19.30;61.00;;;;;;5026451;28;44055;-70
2022/04/23 07:31:19;;;;;;;3.43;3.37;;;19.30;60.80;;;;;;5026711;28;43934;-71
2022/04/23 07:39:19;;;;;;;3.30;3.20;;;19.20;60.50;;;;;;5008398;28;44646;-71
2022/04/23 07:41:47;;;;;;;3.67;3.57;;;19.10;60.70;;;;;;5026296;28;44010;-71
2022/04/23 07:44:15;;;;;;;3.40;3.40;;;19.00;60.80;;;;;;5026771;28;44295;-71
2022/04/23 07:46:43;;;;;;;3.70;3.50;;;19.00;61.00;;;;;;5026171;28;43956;-70
2022/04/23 07:49:11;;;;;;;3.73;3.63;;;19.00;61.20;;;;;;5026075;28;44101;-71
2022/04/23 07:51:39;;;;;;;3.20;3.20;;;18.90;61.70;;;;;;5026445;28;44044;-71
2022/04/23 07:54:07;;;;;;;3.47;3.37;;;18.90;62.20;;;;;;5026702;28;43342;-70
2022/04/23 07:56:36;;;;;;;3.60;3.50;;;19.00;62.10;;;;;;5026353;28;43922;-70
2022/04/23 07:59:04;;;;;;;3.43;3.37;;;19.10;61.60;;;;;;5026179;28;43496;-70
2022/04/23 08:01:32;;;;;;;3.60;3.50;;;19.20;61.40;;;;;;5026327;28;43971;-72
2022/04/23 08:04:02;;;;;;;3.13;3.10;;;19.10;60.90;;;;;;5026663;28;43938;-70
2022/04/23 08:06:31;;;;;;;3.20;3.10;;;19.10;60.80;;;;;;5025948;28;44911;-71
2022/04/23 08:08:59;;;;;;;3.00;2.90;;;19.00;60.90;;;;;;5025940;28;44319;-71
2022/04/23 08:11:27;;;;;;;3.40;3.30;;;18.90;61.00;;;;;;5026217;28;44089;-72
2022/04/23 08:13:56;;;;;;;2.80;2.80;;;18.90;61.30;;;;;;5026587;28;43396;-70
2022/04/23 08:16:27;;;;;;;3.17;3.00;;;18.80;61.40;;;;;;5025442;28;43997;-72
2022/04/23 08:18:56;;;;;;;2.90;2.80;;;18.80;61.50;;;;;;5026192;28;43938;-71
2022/04/23 08:21:25;;;;;;;3.43;3.33;;;18.80;62.40;;;;;;5026122;28;43928;-70
2022/04/23 08:23:55;;;;;;;3.10;3.10;;;18.80;61.80;;;;;;5026472;28;44052;-71
2022/04/23 08:26:23;;;;;;;3.10;3.03;;;18.80;62.40;;;;;;5025524;28;44806;-71
2022/04/23 08:31:37;;;;;;;3.47;3.37;;;19.00;62.20;;;;;;5029147;28;44126;-69
2022/04/23 08:34:05;;;;;;;3.20;3.10;;;19.20;61.80;;;;;;5023279;28;44018;-71
2022/04/23 08:36:35;;;;;;;3.57;3.47;;;19.40;61.10;;;;;;5022701;28;43964;-70
2022/04/23 08:39:04;;;;;;;4.07;3.77;;;19.40;60.70;;;;;;5022623;28;43494;-71
2022/04/23 08:41:32;;;;;;;4.73;3.80;;;19.40;60.70;;;;;;5023346;28;43973;-71
2022/04/23 08:44:07;;;;;;;6.07;3.70;;;19.30;60.60;;;;;;5029057;28;43382;-71
2022/04/23 08:46:38;;;;;;;4.20;3.83;;;19.20;60.50;;;;;;5028190;28;43985;-71
2022/04/23 08:49:10;;;;;;;4.90;4.23;;;19.10;60.80;;;;;;5027927;28;43978;-71
2022/04/23 08:51:39;;;;;;;7.70;4.57;;;19.00;60.90;;;;;;5028501;28;44063;-71
2022/04/23 08:54:08;;;;;;;5.37;4.83;;;19.00;61.20;;;;;;5028483;28;43949;-71
2022/04/23 08:56:37;;;;;;;5.80;4.80;;;18.90;61.30;;;;;;5028094;28;44062;-70
2022/04/23 08:59:06;;;;;;;7.97;5.23;;;18.90;61.70;;;;;;5028041;28;43966;-71
2022/04/23 09:01:38;;;;;;;5.47;5.00;;;18.90;62.40;;;;;;5028605;28;43321;-70
2022/04/23 09:04:07;;;;;;;6.73;5.60;;;19.00;62.40;;;;;;5028108;28;43414;-70
2022/04/23 09:06:39;;;;;;;7.50;5.23;;;19.10;62.00;;;;;;5028132;28;43906;-71
2022/04/23 09:09:15;;;;;;;8.40;5.23;;;19.20;61.50;;;;;;5027853;28;43859;-71
2022/04/23 09:11:44;;;;;;;6.67;5.07;;;19.10;60.90;;;;;;5028008;28;43512;-70
2022/04/23 09:14:23;;;;;;;7.00;5.23;;;19.10;60.90;;;;;;5028268;28;44038;-71
2022/04/23 09:25:16;;;;;;;5.43;5.03;;;18.80;60.80;;;;;;5028588;28;43801;-71
2022/04/23 09:27:44;;;;;;;5.60;5.20;;;18.80;61.00;;;;;;5027867;28;44144;-71
2022/04/23 09:30:13;;;;;;;5.73;5.23;;;18.70;60.90;;;;;;5027229;28;43828;-71
2022/04/23 09:35:34;;;;;;;5.80;5.17;;;18.70;61.10;;;;;;5162764;27;43898;-70
2022/04/23 09:38:15;;;;;;;5.70;5.20;;;18.90;61.70;;;;;;5145206;27;43988;-71
2022/04/23 09:40:52;;;;;;;4.83;4.43;;;19.10;61.40;;;;;;5144992;27;44076;-70
2022/04/23 09:43:26;;;;;;;5.20;4.80;;;19.20;60.90;;;;;;5145513;27;43434;-71
2022/04/23 09:46:01;;;;;;;5.90;5.13;;;19.30;60.40;;;;;;5144872;27;43956;-70
2022/04/23 09:48:38;;;;;;;5.30;4.90;;;19.40;60.20;;;;;;5145001;27;43827;-71
2022/04/23 09:51:07;;;;;;;4.90;4.60;;;19.30;60.10;;;;;;5144235;27;44104;-71
2022/04/23 09:53:35;;;;;;;4.97;4.63;;;19.20;60.10;;;;;;5145752;27;44012;-70
2022/04/23 09:56:05;;;;;;;6.40;4.67;;;19.10;60.30;;;;;;5160827;27;46127;-70
2022/04/23 09:58:33;;;;;;;4.93;4.53;;;19.00;60.50;;;;;;5145293;27;43902;-71
2022/04/23 10:01:07;;;;;;;4.83;4.53;;;19.00;60.90;;;;;;5144941;27;43947;-71
2022/04/23 10:03:35;;;;;;;4.93;4.50;;;18.90;61.00;;;;;;5145532;27;43975;-71
2022/04/23 10:06:03;;;;;;;5.17;4.80;;;18.80;61.20;;;;;;5144712;27;44025;-71
2022/04/23 10:08:36;;;;;;;4.70;4.30;;;18.80;62.10;;;;;;5145199;27;43988;-70
2022/04/23 10:11:08;;;;;;;4.50;4.27;;;18.90;62.20;;;;;;5138087;27;43965;-70
2022/04/23 10:13:36;;;;;;;5.77;3.93;;;19.00;61.80;;;;;;5145535;27;43882;-70
2022/04/23 10:16:10;;;;;;;4.47;4.17;;;19.10;62.20;;;;;;5144279;27;43962;-71
2022/04/23 10:18:40;;;;;;;4.43;4.10;;;19.10;61.10;;;;;;5143069;27;45012;-70
2022/04/23 10:21:09;;;;;;;4.20;3.90;;;19.10;60.80;;;;;;5142765;27;44021;-70
2022/04/23 10:23:50;;;;;;;4.03;3.73;;;19.00;60.90;;;;;;5143407;27;44019;-71
2022/04/23 10:26:29;;;;;;;4.03;3.90;;;18.90;61.10;;;;;;5144209;27;44057;-71
2022/04/23 10:28:57;;;;;;;4.77;4.00;;;18.90;61.40;;;;;;5144435;27;43995;-70
2022/04/23 10:31:25;;;;;;;4.73;4.30;;;18.80;61.60;;;;;;5143939;27;43886;-70
2022/04/23 10:33:53;;;;;;;4.50;4.20;;;18.80;61.70;;;;;;5142784;27;43953;-71
2022/04/23 10:36:22;;;;;;;4.17;3.87;;;18.70;61.70;;;;;;5143864;27;43992;-72
2022/04/23 10:38:53;;;;;;;4.20;3.90;;;18.70;61.80;;;;;;5144069;27;43992;-71
2022/04/23 10:41:21;;;;;;;3.80;3.60;;;18.70;62.20;;;;;;5143949;27;44155;-72
2022/04/23 10:44:00;;;;;;;4.43;4.10;;;18.70;62.50;;;;;;5144464;27;43392;-71
2022/04/23 10:46:47;;;;;;;3.93;3.70;;;18.90;62.20;;;;;;5126580;27;44062;-71
2022/04/23 10:49:20;;;;;;;3.57;3.37;;;19.10;61.90;;;;;;5129972;27;43950;-71
2022/04/23 10:51:50;;;;;;;4.00;3.80;;;19.30;61.30;;;;;;5130388;27;43994;-71
2022/04/23 10:54:21;;;;;;;4.27;3.97;;;19.40;60.90;;;;;;5130125;27;43865;-71
2022/04/23 10:56:50;;;;;;;3.47;3.27;;;19.40;60.80;;;;;;5129889;27;44452;-72
2022/04/23 10:59:35;;;;;;;3.67;3.37;;;19.30;60.60;;;;;;5129987;27;43965;-71
2022/04/23 11:02:06;;;;;;;3.70;3.50;;;19.20;60.60;;;;;;5123964;27;43908;-70
2022/04/23 11:04:34;;;;;;;3.63;3.50;;;19.10;60.90;;;;;;5130698;27;44052;-71
2022/04/23 11:12:51;;;;;;;3.13;3.03;;;18.90;61.60;;;;;;5130190;27;43942;-70
2022/04/23 11:15:20;;;;;;;3.37;3.27;;;18.80;61.80;;;;;;5129959;27;44015;-71
2022/04/23 11:17:54;;;;;;;3.60;3.40;;;18.80;62.40;;;;;;5130151;27;44040;-71
2022/04/23 11:20:32;;;;;;;3.43;3.23;;;18.90;62.40;;;;;;5129300;27;43924;-71
2022/04/23 11:23:03;;;;;;;3.43;3.23;;;19.10;62.10;;;;;;5128192;27;43995;-71
2022/04/23 11:25:33;;;;;;;3.67;3.37;;;19.10;61.60;;;;;;5130278;27;43992;-71
2022/04/23 11:28:16;;;;;;;3.30;3.10;;;19.10;61.40;;;;;;5129472;27;43916;-72
2022/04/23 11:30:44;;;;;;;3.40;3.20;;;19.00;61.30;;;;;;5129425;27;43886;-71
2022/04/23 11:33:13;;;;;;;2.97;2.87;;;19.00;61.50;;;;;;5129068;27;43867;-71
2022/04/23 11:35:43;;;;;;;3.13;3.03;;;18.90;61.70;;;;;;5130148;27;43934;-70
2022/04/23 11:38:26;;;;;;;2.70;2.60;;;18.90;61.80;;;;;;5128889;27;44068;-71
2022/04/23 11:40:55;;;;;;;3.20;3.10;;;18.80;62.00;;;;;;5125342;27;43428;-72
2022/04/23 11:43:34;;;;;;;3.03;2.93;;;18.80;62.10;;;;;;5129242;27;44074;-71
2022/04/23 11:46:03;;;;;;;2.97;2.87;;;18.80;62.20;;;;;;5130146;27;43369;-70
2022/04/23 11:48:40;;;;;;;2.83;2.73;;;18.70;62.20;;;;;;5129967;27;43959;-70
2022/04/23 11:51:10;;;;;;;3.00;2.90;;;18.80;62.80;;;;;;5129799;27;43948;-71
2022/04/23 11:53:49;;;;;;;2.60;2.60;;;18.90;62.60;;;;;;5129779;27;43969;-71
2022/04/23 11:56:23;;;;;;;2.93;2.83;;;19.10;62.20;;;;;;5123104;27;43926;-70
2022/04/23 11:58:53;;;;;;;2.70;2.70;;;19.20;61.70;;;;;;5129037;27;43843;-71
2022/04/23 12:01:24;;;;;;;3.20;2.90;;;19.30;61.10;;;;;;5128634;27;44186;-71
2022/04/23 12:03:53;;;;;;;2.73;2.63;;;19.40;61.70;;;;;;5129255;27;44024;-71
2022/04/23 12:06:20;;;;;;;2.80;2.70;;;19.30;60.90;;;;;;5129230;27;43484;-70
2022/04/23 12:08:49;;;;;;;2.43;2.43;;;19.30;61.00;;;;;;5129301;27;44014;-71
2022/04/23 12:11:26;;;;;;;2.57;2.57;;;19.20;61.20;;;;;;5128782;27;44071;-70
2022/04/23 12:13:54;;;;;;;2.73;2.73;;;19.10;61.50;;;;;;5128942;27;43389;-72
2022/04/23 12:16:36;;;;;;;2.63;2.53;;;19.00;61.70;;;;;;5128849;27;43991;-70
2022/04/23 12:19:05;;;;;;;2.77;2.67;;;18.90;61.80;;;;;;5129862;27;43798;-70
2022/04/23 12:21:35;;;;;;;3.33;2.80;;;18.90;62.00;;;;;;5129595;27;44021;-71
2022/04/23 12:24:04;;;;;;;3.20;3.00;;;18.90;62.60;;;;;;5129784;27;43420;-71
2022/04/23 12:26:34;;;;;;;3.10;2.90;;;18.90;62.60;;;;;;5130566;27;44067;-71
2022/04/23 12:43:22;;;;;;;6.33;2.60;;;18.90;62.00;;;;;;5129351;27;43445;-71
2022/04/23 12:45:50;;;;;;;2.60;2.50;;;18.80;62.20;;;;;;5127764;27;43955;-70
2022/04/23 12:48:18;;;;;;;2.33;2.33;;;18.80;62.40;;;;;;5130034;27;43433;-71
2022/04/23 12:50:46;;;;;;;2.50;2.40;;;18.80;62.50;;;;;;5128807;27;45106;-71
2022/04/23 12:53:32;;;;;;;2.70;2.60;;;18.70;62.50;;;;;;5128154;27;44091;-71
2022/04/23 12:56:01;;;;;;;2.60;2.60;;;18.70;62.60;;;;;;5127984;27;44032;-71
2022/04/23 12:58:31;;;;;;;2.53;2.43;;;18.70;63.20;;;;;;5128700;27;44028;-71
2022/04/23 13:00:59;;;;;;;2.23;2.23;;;18.80;63.00;;;;;;5128883;27;44092;-71
2022/04/23 13:03:36;;;;;;;2.80;2.70;;;19.00;62.60;;;;;;5127906;27;43819;-70
2022/04/23 13:08:54;;;;;;;2.83;2.63;;;19.20;62.10;;;;;;5121425;27;43885;-71
2022/04/23 13:08:56;;;;;;;2.50;2.40;;;19.30;61.40;;;;;;5128096;27;44129;-71
2022/04/23 13:11:27;;;;;;;2.60;2.40;;;19.30;60.90;;;;;;5127653;27;44045;-72
2022/04/23 13:13:58;;;;;;;2.80;2.60;;;19.30;61.10;;;;;;5128120;27;43892;-71
2022/04/23 13:16:26;;;;;;;2.50;2.40;;;19.20;61.20;;;;;;5127608;27;43969;-71
2022/04/23 13:18:57;;;;;;;2.23;2.17;;;19.10;61.40;;;;;;5128546;27;43983;-71
2022/04/23 13:21:30;;;;;;;2.40;2.30;;;19.00;61.80;;;;;;5127584;27;43971;-71
2022/04/23 13:23:58;;;;;;;2.80;2.60;;;18.90;61.80;;;;;;5127851;27;44043;-71
2022/04/23 13:26:27;;;;;;;2.27;2.23;;;18.90;62.00;;;;;;5127651;27;44560;-71
2022/04/23 13:28:56;;;;;;;2.60;2.50;;;18.80;62.10;;;;;;5127873;27;44240;-71
2022/04/23 13:31:24;;;;;;;2.10;2.10;;;18.80;62.70;;;;;;5127351;27;43912;-70
2022/04/23 13:33:52;;;;;;;2.50;2.30;;;18.80;62.90;;;;;;5127244;27;43923;-71
2022/04/23 13:36:20;;;;;;;2.63;2.53;;;18.90;62.60;;;;;;5125454;27;43943;-71
2022/04/23 13:38:49;;;;;;;2.13;2.13;;;19.10;62.30;;;;;;5128268;27;44031;-71
2022/04/23 13:41:17;;;;;;;4.33;2.67;;;19.30;61.80;;;;;;5127262;27;44787;-71
2022/04/23 13:43:47;;;;;;;2.47;2.47;;;19.30;61.60;;;;;;5127334;27;43974;-70